Time;durP1;ratioP1;P1;durP2;ratioP2;P2;SDS_P1;SDS_P2;PMS_P1;PMS_P2;Temp;Humidity;BMP_temperature;BMP_pressure;BME280_temperature;BME280_humidity;BME280_pressure;Samples;Min_cycle;Max_cycle;Signal;HPM_P1;HPM_P2
2021/05/04 00:00:54;;;;;;;1.40;0.50;;;9.30;99.90;;;8.78;75.91;100995.53;5066774;28;20033;-49
2021/05/04 00:03:20;;;;;;;1.85;0.68;;;9.30;99.90;;;8.78;75.75;100998.94;5067117;28;20035;-53
2021/05/04 00:05:46;;;;;;;1.08;0.40;;;9.30;99.90;;;8.82;75.51;100996.94;5067298;28;20059;-50
2021/05/04 00:08:12;;;;;;;6.03;0.50;;;9.30;99.90;;;8.89;74.85;100996.34;5067038;28;20041;-52
2021/05/04 00:10:38;;;;;;;6.05;0.60;;;9.40;99.90;;;8.94;74.78;101002.00;5066985;28;20052;-52
2021/05/04 00:13:04;;;;;;;2.35;0.40;;;9.40;99.90;;;8.92;74.55;100995.28;5067636;28;20616;-49
2021/05/04 00:15:30;;;;;;;0.90;0.30;;;9.40;99.90;;;8.87;74.95;101000.00;5066765;28;20044;-50
2021/05/04 00:17:56;;;;;;;1.25;0.60;;;9.40;99.90;;;8.83;74.66;100998.59;5066865;28;20115;-49
2021/05/04 00:20:22;;;;;;;2.25;0.43;;;9.40;99.90;;;8.79;75.52;100997.16;5067081;28;20124;-50
2021/05/04 00:22:48;;;;;;;1.08;0.30;;;9.30;99.90;;;8.75;75.01;100993.97;5066825;28;20029;-52
2021/05/04 00:25:14;;;;;;;1.33;0.40;;;9.30;99.90;;;8.72;75.38;100991.63;5066710;28;20039;-49
2021/05/04 00:27:40;;;;;;;0.85;0.45;;;9.30;99.90;;;8.67;75.82;100980.75;5076839;28;20115;-49
2021/05/04 00:30:07;;;;;;;1.63;0.47;;;9.30;99.90;;;8.62;76.20;100980.28;5087001;28;20087;-50
2021/05/04 00:32:33;;;;;;;0.80;0.50;;;9.20;99.90;;;8.60;75.90;100984.78;5070710;28;20043;-50
2021/05/04 00:34:59;;;;;;;4.35;0.50;;;9.10;99.90;;;8.56;75.80;100980.75;5070625;28;20037;-50
2021/05/04 00:37:25;;;;;;;5.32;0.40;;;9.10;99.90;;;8.52;75.99;100974.97;5070349;28;20032;-51
2021/05/04 00:39:51;;;;;;;3.55;0.40;;;9.10;99.90;;;8.50;75.58;100970.88;5070431;28;20033;-53
2021/05/04 00:42:16;;;;;;;1.17;0.45;;;9.10;99.90;;;8.49;75.78;100969.22;5070250;28;20466;-50
2021/05/04 00:44:42;;;;;;;1.70;0.40;;;9.00;99.90;;;8.47;75.87;100961.56;5069982;28;20059;-51
2021/05/04 00:47:08;;;;;;;5.28;0.50;;;9.00;99.90;;;8.49;75.82;100959.66;5070737;28;20416;-49
2021/05/04 00:49:34;;;;;;;2.33;0.50;;;9.00;99.90;;;8.52;75.45;100958.56;5070195;28;20060;-49
2021/05/04 00:52:00;;;;;;;0.98;0.45;;;9.00;99.90;;;8.53;75.84;100965.41;5070103;28;20415;-49
2021/05/04 00:54:26;;;;;;;2.70;0.65;;;9.10;99.90;;;8.46;75.63;100967.69;5052046;28;20093;-51
2021/05/04 00:56:54;;;;;;;0.90;0.40;;;9.00;99.90;;;8.38;76.63;100962.25;5051924;28;20178;-53
2021/05/04 00:59:25;;;;;;;1.35;0.40;;;9.00;99.90;;;8.34;76.70;100965.22;5070014;28;20043;-52
2021/05/04 01:01:55;;;;;;;2.90;0.38;;;8.90;99.90;;;8.27;77.08;100963.03;5069979;28;20059;-51
2021/05/04 01:04:22;;;;;;;2.60;0.60;;;8.80;99.90;;;8.22;78.60;100972.94;5072266;28;20028;-50
2021/05/04 01:06:49;;;;;;;3.25;0.65;;;8.80;99.90;;;8.14;78.52;100970.09;5083917;28;20036;-49
2021/05/04 01:09:16;;;;;;;3.40;0.65;;;8.70;99.90;;;8.03;79.55;100962.34;5090051;28;20031;-51
2021/05/04 01:11:44;;;;;;;5.35;0.70;;;8.70;99.90;;;7.94;80.75;100963.84;5089902;28;20521;-51
2021/05/04 01:14:11;;;;;;;1.30;0.60;;;8.50;99.90;;;7.90;81.00;100959.00;5089856;28;20112;-51
2021/05/04 01:16:49;;;;;;;3.47;0.75;;;8.50;99.90;;;7.88;81.07;100951.34;5090291;28;20065;-51
2021/05/04 01:19:16;;;;;;;6.20;1.10;;;8.40;99.90;;;7.88;81.00;100948.75;5089570;28;20028;-53
2021/05/04 01:21:43;;;;;;;1.40;0.68;;;8.40;99.90;;;7.89;80.14;100957.34;5080460;28;20186;-51
2021/05/04 01:24:10;;;;;;;1.00;0.65;;;8.40;99.90;;;7.89;79.88;100949.56;5079633;28;20119;-51
2021/05/04 01:26:36;;;;;;;2.05;1.02;;;8.40;99.90;;;7.93;79.48;100940.63;5089570;28;20391;-53
2021/05/04 01:29:03;;;;;;;1.42;0.50;;;8.40;99.90;;;7.97;78.82;100937.69;5089716;28;20245;-51
2021/05/04 01:31:30;;;;;;;2.05;0.40;;;8.50;99.90;;;8.05;78.08;100938.84;5089463;28;20028;-51
2021/05/04 01:33:56;;;;;;;2.28;0.50;;;8.50;99.90;;;8.15;77.47;100938.03;5089516;28;20028;-52
2021/05/04 01:36:23;;;;;;;0.85;0.50;;;8.60;99.90;;;8.19;77.96;100936.03;5089414;28;20039;-50
2021/05/04 01:38:49;;;;;;;1.20;0.60;;;8.70;99.90;;;8.15;78.04;100944.97;5089418;28;20425;-52
2021/05/04 01:41:15;;;;;;;2.55;0.50;;;8.70;99.90;;;8.16;78.45;100931.06;5089628;28;20041;-51
2021/05/04 01:43:40;;;;;;;2.55;1.05;;;8.70;99.90;;;8.13;78.62;100939.91;5070785;28;20048;-51
2021/05/04 01:46:06;;;;;;;3.15;0.80;;;8.70;99.90;;;8.15;78.72;100925.03;5089385;28;20438;-49
2021/05/04 01:48:32;;;;;;;2.33;0.80;;;8.70;99.90;;;8.19;78.45;100928.22;5089513;28;20070;-53
2021/05/04 01:50:58;;;;;;;1.58;0.55;;;8.70;99.90;;;8.22;78.68;100925.41;5089261;28;20344;-51
2021/05/04 01:53:24;;;;;;;1.08;0.60;;;8.80;99.90;;;8.20;78.46;100912.53;5089333;28;20039;-54
2021/05/04 01:55:50;;;;;;;1.58;0.63;;;8.70;99.90;;;8.21;78.31;100905.56;5088969;28;20072;-51
2021/05/04 01:58:17;;;;;;;1.25;0.75;;;8.80;99.90;;;8.19;78.20;100910.06;5089227;28;20043;-48
2021/05/04 02:00:43;;;;;;;1.77;0.80;;;8.80;99.90;;;8.17;78.16;100920.56;5089052;28;20055;-50
2021/05/04 02:03:09;;;;;;;4.22;0.90;;;8.70;99.90;;;8.17;77.99;100912.78;5088793;28;20490;-51
2021/05/04 02:05:35;;;;;;;2.33;0.50;;;8.70;99.90;;;8.13;77.83;100906.16;5089297;28;20028;-48
2021/05/04 02:08:01;;;;;;;2.72;0.80;;;8.70;99.90;;;8.11;77.68;100907.22;5088948;28;20542;-50
2021/05/04 02:10:27;;;;;;;5.93;1.00;;;8.70;99.90;;;8.04;77.77;100901.69;5089121;28;20039;-52
2021/05/04 02:12:52;;;;;;;1.33;0.50;;;8.60;99.90;;;8.01;78.30;100901.94;5088838;28;20066;-50
2021/05/04 02:15:19;;;;;;;1.40;0.50;;;8.60;99.90;;;7.98;78.14;100886.59;5088655;28;20491;-50
2021/05/04 02:17:44;;;;;;;2.25;0.63;;;8.50;99.90;;;7.94;78.66;100877.41;5088592;28;20060;-50
2021/05/04 02:20:12;;;;;;;4.85;0.43;;;8.50;99.90;;;7.93;78.79;100873.97;5089037;28;20088;-51
2021/05/04 02:22:38;;;;;;;2.58;0.70;;;8.50;99.90;;;7.92;78.36;100876.69;5088709;28;20035;-51
2021/05/04 02:25:06;;;;;;;1.60;0.65;;;8.50;99.90;;;7.93;78.75;100865.38;5088596;28;20062;-54
2021/05/04 02:27:33;;;;;;;4.75;0.50;;;8.50;99.90;;;7.88;78.08;100864.91;5088559;28;20117;-53
2021/05/04 02:29:59;;;;;;;2.25;0.47;;;8.40;99.90;;;7.90;78.36;100857.81;5088421;28;20095;-56
2021/05/04 02:32:26;;;;;;;3.78;0.40;;;8.50;99.90;;;7.91;78.10;100859.47;5088267;28;20040;-51
2021/05/04 02:34:53;;;;;;;2.55;0.57;;;8.40;99.90;;;7.88;78.09;100851.94;5088209;28;20085;-51
2021/05/04 02:37:19;;;;;;;2.22;0.60;;;8.40;99.90;;;7.91;78.04;100859.47;5088355;28;20504;-51
2021/05/04 02:39:45;;;;;;;1.23;0.55;;;8.40;99.90;;;7.87;78.16;100868.44;5088114;28;20153;-50
2021/05/04 02:42:11;;;;;;;3.53;0.60;;;8.40;99.90;;;7.83;78.97;100861.81;5451865;22;20209;-52
2021/05/04 02:44:37;;;;;;;2.33;1.00;;;8.40;99.90;;;7.74;79.49;100852.97;4989080;28;20164;-53
2021/05/04 02:47:03;;;;;;;2.75;1.05;;;8.30;99.90;;;7.64;80.82;100852.00;4989417;28;20132;-51
2021/05/04 02:49:29;;;;;;;2.80;1.23;;;8.20;99.90;;;7.59;82.82;100851.53;4988093;28;20054;-50
2021/05/04 02:51:55;;;;;;;5.05;1.48;;;8.20;99.90;;;7.57;81.83;100850.81;4988760;28;20038;-54
2021/05/04 02:54:21;;;;;;;4.13;1.73;;;8.10;99.90;;;7.51;82.28;100849.53;4988772;28;20033;-51
2021/05/04 02:56:47;;;;;;;8.93;1.77;;;8.10;99.90;;;7.49;82.78;100851.44;4989011;28;20353;-51
2021/05/04 02:59:13;;;;;;;1.88;1.08;;;8.10;99.90;;;7.49;82.80;100848.84;4988949;28;20038;-49
2021/05/04 03:01:39;;;;;;;2.60;1.45;;;8.00;99.90;;;7.46;83.09;100845.66;4988872;28;20464;-52
2021/05/04 03:04:05;;;;;;;4.30;1.50;;;8.00;99.90;;;7.40;82.56;100849.50;4988562;28;20026;-53
2021/05/04 03:06:31;;;;;;;3.45;1.20;;;8.00;99.90;;;7.38;82.95;100846.22;4988456;28;20030;-54
2021/05/04 03:08:58;;;;;;;2.30;1.25;;;7.90;99.90;;;7.35;83.15;100855.97;4988414;28;20394;-52
2021/05/04 03:11:24;;;;;;;4.07;1.42;;;7.90;99.90;;;7.33;83.09;100849.16;4988633;28;20045;-52
2021/05/04 03:13:50;;;;;;;3.30;1.35;;;7.90;99.90;;;7.33;82.64;100851.75;4988552;28;20046;-51
2021/05/04 03:16:16;;;;;;;5.65;1.40;;;7.90;99.90;;;7.31;82.94;100852.78;4988829;28;20046;-51
2021/05/04 03:18:42;;;;;;;2.40;1.20;;;7.90;99.90;;;7.29;83.02;100849.47;4988691;28;20034;-52
2021/05/04 03:21:08;;;;;;;6.65;1.20;;;7.80;99.90;;;7.26;83.14;100855.72;4988648;28;20035;-54
2021/05/04 03:23:34;;;;;;;2.00;1.10;;;7.80;99.90;;;7.26;82.81;100839.34;4988728;28;20074;-55
2021/05/04 03:26:00;;;;;;;1.25;0.77;;;7.80;99.90;;;7.27;82.75;100844.41;4988746;28;20034;-49
2021/05/04 03:28:26;;;;;;;1.58;0.85;;;7.80;99.90;;;7.33;82.15;100846.56;4988692;28;20378;-52
2021/05/04 03:30:52;;;;;;;2.47;0.77;;;7.90;99.90;;;7.42;81.21;100834.66;4988392;28;20185;-48
2021/05/04 03:33:18;;;;;;;2.17;0.80;;;7.90;99.90;;;7.47;80.70;100827.38;4988395;28;20043;-49
2021/05/04 03:35:43;;;;;;;4.57;0.80;;;8.00;99.90;;;7.55;80.23;100834.59;4988405;28;20069;-53
2021/05/04 03:38:10;;;;;;;2.30;0.90;;;8.00;99.90;;;7.53;80.56;100829.50;4988524;28;20026;-52
2021/05/04 03:40:36;;;;;;;2.75;0.70;;;8.10;99.90;;;7.49;80.99;100832.44;4988490;28;20034;-54
2021/05/04 03:43:03;;;;;;;2.67;1.02;;;8.00;99.90;;;7.44;81.50;100827.59;4988074;28;20244;-51
2021/05/04 03:45:29;;;;;;;2.17;1.20;;;8.00;99.90;;;7.42;81.31;100829.50;4988391;28;20358;-52
2021/05/04 03:47:56;;;;;;;3.70;1.58;;;8.00;99.90;;;7.37;81.56;100834.19;4988135;28;20026;-52
2021/05/04 03:50:26;;;;;;;6.05;1.27;;;8.00;99.90;;;7.35;82.05;100827.47;4987922;28;20073;-53
2021/05/04 03:52:53;;;;;;;5.55;1.55;;;7.90;99.90;;;7.35;82.06;100835.25;4988130;28;20080;-50
2021/05/04 03:55:20;;;;;;;4.85;1.58;;;7.90;99.90;;;7.34;82.30;100826.63;4988007;28;20046;-50
2021/05/04 03:57:46;;;;;;;2.47;1.17;;;7.90;99.90;;;7.34;82.58;100834.41;4988144;28;20030;-50
2021/05/04 04:00:14;;;;;;;2.22;1.50;;;7.90;99.90;;;7.33;82.00;100832.75;4988313;28;20066;-51
2021/05/04 04:02:41;;;;;;;2.72;1.38;;;7.90;99.90;;;7.34;82.07;100829.22;4991860;28;20559;-52
2021/05/04 04:05:07;;;;;;;2.42;1.50;;;7.90;99.90;;;7.38;82.21;100838.44;4992090;28;20465;-52
2021/05/04 04:07:34;;;;;;;3.20;1.10;;;7.90;99.90;;;7.42;82.00;100837.25;4992357;28;20035;-49
2021/05/04 04:10:00;;;;;;;1.83;1.50;;;8.00;99.90;;;7.43;82.10;100843.28;4991990;28;20564;-54
2021/05/04 04:12:26;;;;;;;4.03;1.70;;;8.00;99.90;;;7.48;81.58;100852.38;4992076;28;20105;-49
2021/05/04 04:14:53;;;;;;;3.33;1.10;;;8.10;99.90;;;7.54;81.21;100853.69;4992088;28;20042;-49
2021/05/04 04:17:20;;;;;;;2.95;1.30;;;8.10;99.90;;;7.57;81.46;100854.25;4992066;28;20593;-51
2021/05/04 04:19:46;;;;;;;2.38;1.30;;;8.10;99.90;;;7.58;81.21;100853.31;4991752;28;20149;-50
2021/05/04 04:22:12;;;;;;;4.35;1.33;;;8.20;99.90;;;7.70;81.11;100853.31;4991814;28;20462;-53
2021/05/04 04:24:38;;;;;;;2.63;1.52;;;8.30;99.90;;;8.52;79.23;100849.50;4991841;28;20037;-52
2021/05/04 04:27:04;;;;;;;3.25;1.30;;;9.00;99.90;;;9.63;75.81;100854.16;4991925;28;20062;-50
2021/05/04 04:29:31;;;;;;;2.55;1.00;;;10.40;99.90;;;9.44;75.16;100854.09;4991698;28;20034;-49
2021/05/04 04:31:57;;;;;;;6.15;1.73;;;10.70;99.90;;;8.87;76.37;100838.91;4991596;28;20157;-50
2021/05/04 04:34:23;;;;;;;4.28;1.38;;;10.00;99.90;;;8.54;77.55;100843.22;4991418;28;20084;-49
2021/05/04 04:36:48;;;;;;;4.53;1.38;;;9.50;99.90;;;8.28;78.32;100837.50;4991526;28;20454;-54
2021/05/04 04:39:14;;;;;;;2.45;1.45;;;9.20;99.90;;;8.51;78.04;100847.84;4991600;28;20038;-50
2021/05/04 04:41:41;;;;;;;1.55;0.88;;;9.20;99.90;;;9.03;76.04;100844.47;4991297;28;20104;-54
2021/05/04 04:44:09;;;;;;;3.08;1.30;;;10.00;99.90;;;9.39;75.62;100851.03;4991174;28;20050;-53
2021/05/04 04:46:41;;;;;;;3.67;1.23;;;10.20;99.90;;;10.67;72.20;100845.19;4991464;28;20117;-50
2021/05/04 04:49:13;;;;;;;2.40;0.95;;;11.90;99.90;;;12.24;68.08;100834.16;4991326;28;20511;-50
2021/05/04 04:51:40;;;;;;;2.33;0.75;;;14.00;99.90;;;13.48;64.22;100842.91;4991122;28;20529;-49
2021/05/04 04:54:06;;;;;;;2.88;1.05;;;15.80;95.40;;;14.11;62.03;100832.94;4989875;28;20079;-50
2021/05/04 04:56:34;;;;;;;3.30;1.30;;;17.10;88.00;;;14.29;60.18;100838.03;4991243;28;20448;-52
2021/05/04 04:59:00;;;;;;;2.58;0.60;;;17.30;79.40;;;14.92;58.49;100840.16;4991073;28;20034;-51
2021/05/04 05:01:26;;;;;;;2.55;0.80;;;17.80;76.30;;;14.99;57.74;100838.50;4991166;28;20031;-52
2021/05/04 05:03:52;;;;;;;1.35;0.50;;;18.10;73.20;;;13.85;60.20;100840.81;4989726;28;20713;-53
2021/05/04 05:06:18;;;;;;;2.35;0.70;;;17.00;74.40;;;13.74;59.13;100838.47;4991188;28;20034;-50
2021/05/04 05:08:44;;;;;;;6.38;0.90;;;16.60;73.40;;;14.17;58.78;100834.91;4991091;28;20513;-52
2021/05/04 05:11:10;;;;;;;2.25;1.40;;;16.80;75.20;;;14.41;57.63;100836.81;4988541;28;20050;-52
2021/05/04 05:13:36;;;;;;;5.45;1.52;;;17.20;72.50;;;14.77;56.81;100832.09;4990076;28;20027;-51
2021/05/04 05:16:02;;;;;;;4.03;1.77;;;17.80;70.60;;;14.93;56.51;100826.88;4989895;28;20036;-53
2021/05/04 05:18:28;;;;;;;2.35;1.73;;;17.90;69.40;;;15.17;54.93;100822.56;4989671;28;20370;-49
2021/05/04 05:20:54;;;;;;;3.58;2.63;;;18.10;69.80;;;14.93;55.84;100824.25;4990616;28;20056;-51
2021/05/04 05:23:20;;;;;;;5.10;2.00;;;18.00;68.30;;;14.51;57.10;100823.56;4990656;28;20418;-54
2021/05/04 05:25:46;;;;;;;4.40;1.83;;;17.90;68.10;;;14.84;56.34;100830.47;4990681;28;20425;-55
2021/05/04 05:28:12;;;;;;;2.78;1.00;;;18.10;68.00;;;15.50;54.09;100821.56;4990541;28;20046;-49
2021/05/04 05:30:38;;;;;;;6.63;1.40;;;18.90;65.60;;;15.58;54.24;100826.81;4989183;28;20042;-51
2021/05/04 05:33:04;;;;;;;3.55;1.52;;;18.90;64.90;;;16.00;52.96;100822.25;4990810;28;20031;-50
2021/05/04 05:35:30;;;;;;;2.80;1.27;;;19.30;63.80;;;15.89;52.79;100824.25;4990693;28;20464;-50
2021/05/04 05:37:56;;;;;;;6.20;0.93;;;19.50;61.70;;;15.37;53.76;100823.88;4990397;28;20050;-50
2021/05/04 05:40:22;;;;;;;1.85;0.80;;;19.20;62.00;;;15.29;54.16;100823.88;4990483;28;20835;-52
2021/05/04 05:42:48;;;;;;;1.25;0.47;;;19.00;62.90;;;16.12;52.28;100821.66;4990242;28;20132;-53
2021/05/04 05:45:15;;;;;;;1.92;0.50;;;19.40;62.20;;;16.10;51.57;100817.56;4990099;28;20035;-54
2021/05/04 05:47:41;;;;;;;1.55;0.52;;;19.70;60.40;;;17.11;50.17;100818.22;4990177;28;20057;-51
2021/05/04 05:50:07;;;;;;;2.70;0.70;;;20.70;59.40;;;17.92;48.03;100821.03;4990281;28;20038;-54
2021/05/04 05:52:33;;;;;;;2.83;0.70;;;21.70;56.60;;;18.17;47.45;100820.50;4990200;28;20030;-56
2021/05/04 05:54:59;;;;;;;2.58;0.77;;;22.50;54.90;;;18.41;46.68;100819.38;4989945;28;20049;-51
2021/05/04 05:57:25;;;;;;;1.10;0.50;;;22.70;54.10;;;18.45;46.52;100817.13;4990355;28;20027;-53
2021/05/04 05:59:51;;;;;;;1.98;0.50;;;22.70;53.40;;;19.19;45.53;100817.63;4989932;28;20034;-52
2021/05/04 06:02:17;;;;;;;2.65;0.50;;;23.00;53.50;;;19.92;43.93;100810.13;4990193;28;20046;-52
2021/05/04 06:04:43;;;;;;;0.95;0.50;;;24.00;51.60;;;19.65;44.93;100815.31;4990031;28;20035;-52
2021/05/04 06:07:08;;;;;;;4.70;1.65;;;23.90;51.80;;;20.00;43.91;100808.16;4990130;28;20023;-53
2021/05/04 06:09:35;;;;;;;3.03;0.95;;;24.10;50.80;;;18.97;45.05;100811.56;4989824;28;20582;-50
2021/05/04 06:12:01;;;;;;;1.45;0.63;;;23.50;50.50;;;17.14;48.74;100817.03;4989949;28;20054;-52
2021/05/04 06:14:27;;;;;;;2.40;0.88;;;21.40;54.10;;;17.76;47.75;100814.13;4989678;28;20486;-45
2021/05/04 06:16:53;;;;;;;2.45;0.90;;;21.30;53.90;;;17.75;47.24;100815.94;4989970;28;20084;-49
2021/05/04 06:19:19;;;;;;;3.33;0.82;;;21.50;53.80;;;16.41;50.21;100815.78;4989689;28;20053;-48
2021/05/04 06:21:45;;;;;;;2.50;0.63;;;19.50;57.50;;;15.54;52.37;100822.88;4989742;28;20051;-49
2021/05/04 06:24:11;;;;;;;2.53;0.65;;;17.90;61.60;;;14.89;53.91;100824.72;4988894;28;20560;-52
2021/05/04 06:26:37;;;;;;;2.78;0.60;;;16.80;65.10;;;15.13;53.05;100814.22;4989689;28;20441;-49
2021/05/04 06:29:05;;;;;;;2.70;0.60;;;16.60;66.40;;;15.28;53.33;100814.38;4989649;28;20065;-46
2021/05/04 06:31:31;;;;;;;3.40;0.60;;;16.70;67.40;;;15.79;52.14;100815.75;4989475;28;20206;-46
2021/05/04 06:33:57;;;;;;;3.42;0.60;;;17.80;64.10;;;16.27;51.11;100806.81;4989331;28;20053;-48
2021/05/04 06:36:23;;;;;;;2.47;0.77;;;18.60;62.00;;;15.90;51.60;100812.75;4989360;28;20035;-51
2021/05/04 06:38:49;;;;;;;0.85;0.57;;;18.40;61.80;;;16.42;50.97;100811.34;4989347;28;20035;-49
2021/05/04 06:41:15;;;;;;;3.25;0.50;;;18.80;62.10;;;17.48;48.85;100819.19;4988697;28;20042;-51
2021/05/04 06:43:41;;;;;;;2.15;0.60;;;20.40;58.70;;;18.34;46.66;100815.03;4988557;28;20057;-52
2021/05/04 06:46:07;;;;;;;2.60;0.47;;;22.00;54.60;;;18.69;46.35;100803.63;4989514;28;20042;-51
2021/05/04 06:48:33;;;;;;;5.75;0.60;;;22.50;53.80;;;19.86;43.90;100809.09;4989000;28;20414;-52
2021/05/04 06:50:59;;;;;;;2.08;0.60;;;24.10;51.30;;;20.42;42.81;100811.56;4987372;28;20065;-38
2021/05/04 06:53:26;;;;;;;2.40;0.40;;;25.10;49.00;;;20.81;42.21;100810.78;4989121;28;20441;-56
2021/05/04 06:55:52;;;;;;;1.48;0.70;;;25.40;48.40;;;20.50;42.00;100800.78;4988918;28;20049;-54
2021/05/04 06:58:18;;;;;;;3.17;0.50;;;25.60;47.30;;;21.02;41.69;100807.94;4988903;28;20034;-52
2021/05/04 07:00:45;;;;;;;0.98;0.43;;;26.20;46.30;;;21.10;41.08;100806.91;4988748;28;20576;-53
2021/05/04 07:03:12;;;;;;;2.70;0.50;;;26.40;45.40;;;20.84;41.46;100800.59;4988873;28;20286;-53
2021/05/04 07:05:38;;;;;;;2.88;0.60;;;26.20;45.30;;;20.98;40.79;100806.72;5008573;28;20080;-55
2021/05/04 07:08:04;;;;;;;3.55;0.60;;;26.00;45.60;;;21.42;39.88;100806.06;5003078;28;20453;-53
2021/05/04 07:10:30;;;;;;;2.45;0.60;;;26.30;44.90;;;21.02;40.51;100801.81;4985306;28;20612;-53
2021/05/04 07:12:56;;;;;;;2.10;0.40;;;25.70;45.00;;;20.34;41.25;100793.19;4988402;28;20366;-56
2021/05/04 07:15:22;;;;;;;3.10;0.32;;;24.10;47.10;;;19.67;42.72;100796.63;4988947;28;20034;-54
2021/05/04 07:17:48;;;;;;;2.47;0.85;;;22.60;50.30;;;19.48;43.43;100803.38;4988766;28;20037;-51
2021/05/04 07:20:22;;;;;;;5.18;0.52;;;21.30;53.90;;;18.28;45.92;100805.22;4988488;28;20035;-51
2021/05/04 07:22:53;;;;;;;3.72;1.10;;;20.10;56.80;;;17.55;47.76;100805.09;4988506;28;20546;-53
2021/05/04 07:25:20;;;;;;;2.17;1.95;;;19.00;59.30;;;17.30;47.80;100793.19;4988783;28;20118;-55
2021/05/04 07:27:46;;;;;;;2.40;1.60;;;18.30;60.60;;;17.07;48.26;100795.03;4988631;28;20537;-53
2021/05/04 07:30:13;;;;;;;20.17;17.98;;;18.00;61.70;;;17.20;48.45;100795.25;4988332;28;20035;-52
2021/05/04 07:32:39;;;;;;;9.35;5.55;;;17.90;63.20;;;17.31;47.74;100791.38;4988374;28;20076;-53
2021/05/04 07:35:06;;;;;;;2.53;0.60;;;17.90;62.60;;;17.19;47.85;100796.25;4987370;28;20034;-54
2021/05/04 07:37:35;;;;;;;0.85;0.20;;;17.80;62.90;;;16.92;48.73;100798.50;4986947;28;20129;-55
2021/05/04 07:40:02;;;;;;;3.90;0.22;;;17.60;63.50;;;17.16;47.96;100783.44;4986971;28;20366;-54
2021/05/04 07:42:28;;;;;;;1.73;0.20;;;17.70;63.30;;;17.34;47.99;100781.31;4986262;28;20046;-55
2021/05/04 07:44:54;;;;;;;0.20;0.10;;;17.70;64.10;;;17.45;47.36;100787.94;4988599;28;20041;-51
2021/05/04 07:47:20;;;;;;;1.40;0.13;;;17.90;63.00;;;17.51;46.97;100788.00;4987944;28;20732;-55
2021/05/04 07:49:48;;;;;;;1.95;0.40;;;17.90;63.20;;;17.41;47.25;100781.41;4987457;28;20046;-55
2021/05/04 07:52:14;;;;;;;2.40;0.20;;;18.00;63.40;;;17.87;46.83;100782.03;4986106;28;20038;-55
2021/05/04 07:54:41;;;;;;;0.60;0.10;;;18.10;64.10;;;18.00;46.74;100776.06;4988662;28;20409;-54
2021/05/04 07:57:07;;;;;;;2.53;0.22;;;18.40;63.30;;;18.39;46.07;100781.81;4986813;28;20038;-55
2021/05/04 07:59:33;;;;;;;0.60;0.10;;;18.80;62.70;;;18.56;45.56;100779.72;4986358;28;20081;-54
2021/05/04 08:02:02;;;;;;;1.38;0.10;;;19.00;62.20;;;18.74;45.35;100772.19;4986980;28;20133;-56
2021/05/04 08:04:29;;;;;;;0.50;0.10;;;19.20;62.20;;;18.68;44.90;100778.22;4988207;28;20043;-52
2021/05/04 08:06:56;;;;;;;3.85;0.15;;;19.40;60.80;;;18.57;44.53;100766.34;4985985;28;20046;-53
2021/05/04 08:09:25;;;;;;;1.60;0.20;;;19.00;60.60;;;18.39;44.46;100775.72;4988200;28;20060;-53
2021/05/04 08:11:51;;;;;;;7.82;1.02;;;18.80;60.50;;;18.66;44.52;100772.31;4987456;28;20087;-53
2021/05/04 08:14:18;;;;;;;1.02;0.20;;;18.90;61.60;;;18.93;44.65;100775.16;4988568;28;20461;-52
2021/05/04 08:16:44;;;;;;;1.35;0.20;;;19.30;61.40;;;18.95;44.54;100770.53;4986971;28;20564;-55
2021/05/04 08:19:10;;;;;;;4.25;0.20;;;19.40;60.90;;;19.38;44.00;100768.56;4986711;28;20153;-56
2021/05/04 08:21:52;;;;;;;3.00;0.20;;;19.90;60.40;;;20.14;41.83;100767.50;4987703;28;20038;-54
2021/05/04 08:24:19;;;;;;;2.78;0.40;;;20.80;58.10;;;20.09;42.83;100759.34;4968293;28;20191;-52
2021/05/04 08:26:45;;;;;;;1.55;0.22;;;20.90;58.30;;;20.53;42.22;100764.13;4987260;28;20092;-53
2021/05/04 08:29:11;;;;;;;0.80;0.20;;;21.20;58.10;;;21.48;40.08;100762.84;4986264;28;20030;-54
2021/05/04 08:31:38;;;;;;;0.90;0.15;;;21.90;56.80;;;21.29;40.56;100758.41;4987186;28;20042;-48
2021/05/04 08:34:04;;;;;;;0.70;0.10;;;22.20;55.80;;;20.99;40.83;100751.91;4986497;28;20037;-51
2021/05/04 08:36:31;;;;;;;0.82;0.20;;;21.90;55.90;;;21.07;40.77;100749.06;4985692;28;20045;-56
2021/05/04 08:38:59;;;;;;;2.35;0.10;;;22.00;55.90;;;21.50;40.35;100757.34;4984888;28;20042;-53
2021/05/04 08:41:25;;;;;;;2.50;0.40;;;22.20;55.70;;;21.39;40.22;100756.13;4983633;28;20031;-51
2021/05/04 08:43:52;;;;;;;2.90;0.20;;;22.30;55.30;;;21.01;40.95;100749.88;4966549;28;20477;-43
2021/05/04 08:46:21;;;;;;;1.90;0.22;;;22.00;55.90;;;21.11;40.80;100745.78;4976213;28;20039;-53
2021/05/04 08:48:48;;;;;;;5.50;0.13;;;21.90;55.70;;;21.27;40.67;100741.09;4989940;28;20070;-52
2021/05/04 08:51:16;;;;;;;31.27;2.28;;;22.00;55.90;;;20.67;40.82;100741.16;4990976;28;20042;-49
2021/05/04 08:53:43;;;;;;;20.05;1.10;;;21.50;55.30;;;20.50;40.89;100734.63;4991130;28;20034;-51
2021/05/04 08:56:12;;;;;;;2.13;0.20;;;21.50;54.50;;;19.60;41.71;100734.97;4989693;28;20390;-46
2021/05/04 08:58:40;;;;;;;2.13;0.20;;;20.70;55.70;;;19.68;41.81;100740.91;4989880;28;20387;-38
2021/05/04 09:01:06;;;;;;;2.35;0.20;;;20.60;56.50;;;19.59;41.50;100733.34;4991396;28;20036;-42
2021/05/04 09:03:36;;;;;;;0.70;0.10;;;20.70;55.60;;;19.53;42.14;100724.38;4989650;28;20459;-45
2021/05/04 09:14:07;;;;;;;4.90;0.40;;;20.60;54.50;;;19.82;41.15;100716.16;4990799;28;20046;-40
2021/05/04 09:21:37;;;;;;;3.38;0.30;;;20.60;55.90;;;20.38;40.40;100712.41;4990798;28;20100;-47
2021/05/04 09:24:51;;;;;;;7.22;0.43;;;20.80;56.30;;;20.74;38.63;100702.25;4990804;28;20141;-46
2021/05/04 09:27:17;;;;;;;2.53;0.20;;;21.50;54.20;;;20.56;39.33;100706.53;4977602;28;20133;-48
2021/05/04 09:29:53;;;;;;;1.75;0.30;;;21.40;53.70;;;20.24;39.82;100694.88;4990626;28;20035;-50
2021/05/04 09:32:23;;;;;;;1.83;0.20;;;21.10;54.50;;;20.29;39.80;100697.75;4990399;28;20816;-48
2021/05/04 09:35:01;;;;;;;2.63;0.40;;;20.90;54.80;;;20.82;38.58;100693.25;4990405;28;20041;-51
2021/05/04 09:37:36;;;;;;;6.72;0.40;;;21.20;54.90;;;19.93;39.85;100684.84;4990435;28;20042;-53
2021/05/04 09:40:27;;;;;;;3.22;0.20;;;20.90;54.60;;;19.79;39.64;100678.72;4990319;28;20488;-57
2021/05/04 09:43:08;;;;;;;1.63;0.15;;;20.70;54.40;;;19.97;39.02;100676.31;4990392;28;20129;-55
2021/05/04 09:45:47;;;;;;;2.30;0.20;;;20.60;54.70;;;19.78;38.99;100672.63;4990278;28;20030;-52
2021/05/04 09:48:22;;;;;;;8.60;0.32;;;20.80;54.80;;;19.57;39.29;100678.03;4990273;28;20496;-51
2021/05/04 09:51:16;;;;;;;12.97;0.70;;;20.50;54.30;;;20.09;39.67;100672.06;4990186;28;20037;-56
2021/05/04 09:56:37;;;;;;;2.15;0.20;;;21.40;54.80;;;20.33;39.52;100664.53;4990065;28;20046;-54
2021/05/04 09:59:04;;;;;;;11.57;0.52;;;21.30;55.00;;;20.77;38.61;100669.25;4989787;28;20030;-56
2021/05/04 10:01:31;;;;;;;8.10;0.20;;;21.40;53.40;;;20.45;39.17;100660.31;4989943;28;20034;-53
2021/05/04 10:03:57;;;;;;;36.08;2.63;;;21.10;54.10;;;20.82;38.84;100662.28;4990067;28;20508;-53
2021/05/04 10:06:24;;;;;;;4.22;0.30;;;21.20;54.70;;;21.11;37.96;100657.53;4989806;28;20065;-55
2021/05/04 10:08:51;;;;;;;6.95;0.95;;;21.50;53.90;;;21.31;38.22;100653.00;4989934;28;20026;-48
2021/05/04 10:11:20;;;;;;;4.03;0.30;;;21.80;54.10;;;21.26;37.96;100663.44;4989622;28;20041;-52
2021/05/04 10:13:58;;;;;;;2.75;0.47;;;22.00;53.60;;;21.23;38.28;100665.69;4989568;28;20034;-53
2021/05/04 10:16:27;;;;;;;1.95;0.25;;;21.90;53.80;;;21.41;37.99;100663.16;4989642;28;20042;-52
2021/05/04 10:19:01;;;;;;;6.95;0.40;;;22.10;53.50;;;21.35;37.53;100664.81;4988430;28;20069;-55
2021/05/04 10:21:29;;;;;;;4.07;0.30;;;22.20;52.50;;;21.27;38.31;100661.63;4989771;28;20038;-51
2021/05/04 10:23:56;;;;;;;10.70;1.05;;;22.20;52.70;;;21.80;37.90;100662.13;4989381;28;20579;-52
2021/05/04 10:26:30;;;;;;;2.60;0.30;;;22.30;53.50;;;23.16;34.67;100654.25;4989113;28;20045;-52
2021/05/04 10:29:00;;;;;;;2.63;0.28;;;23.40;51.80;;;22.12;35.97;100650.53;4989565;28;20041;-52
2021/05/04 10:31:40;;;;;;;1.98;0.32;;;23.00;50.90;;;21.56;36.15;100657.59;4989443;28;20466;-58
2021/05/04 10:34:33;;;;;;;5.57;0.30;;;22.40;51.00;;;21.98;35.71;100648.97;4989477;28;20476;-49